createdAt,value
2018-04-02T00:00:13.954Z,88.90
2018-04-02T00:02:42.344Z,88.80
2018-04-02T00:05:10.015Z,88.80
2018-04-02T00:07:37.660Z,88.80
2018-04-02T00:10:05.352Z,88.70
2018-04-02T00:12:32.980Z,88.70
2018-04-02T00:15:00.628Z,88.80
2018-04-02T00:17:28.238Z,88.70
2018-04-02T00:19:55.893Z,88.70
2018-04-02T00:22:23.551Z,88.70
2018-04-02T00:24:51.968Z,88.70
2018-04-02T00:27:19.648Z,88.70
2018-04-02T00:29:48.052Z,88.70
2018-04-02T00:32:16.471Z,88.60
2018-04-02T00:34:44.115Z,88.60
2018-04-02T00:37:11.768Z,88.60
2018-04-02T00:39:39.428Z,88.60
2018-04-02T00:42:07.067Z,88.60
2018-04-02T00:44:34.733Z,88.50
2018-04-02T00:47:02.379Z,88.60
2018-04-02T00:49:30.795Z,88.50
2018-04-02T00:51:58.443Z,88.50
2018-04-02T00:54:26.107Z,88.50
2018-04-02T00:56:53.732Z,88.50
2018-04-02T00:59:22.169Z,88.60
2018-04-02T01:01:49.868Z,88.60
2018-04-02T01:04:17.494Z,88.60
2018-04-02T01:06:45.157Z,88.60
2018-04-02T01:09:12.800Z,88.60
2018-04-02T01:11:40.468Z,88.60
2018-04-02T01:14:08.886Z,88.60
2018-04-02T01:16:37.315Z,88.50
2018-04-02T01:19:04.969Z,88.50
2018-04-02T01:21:33.387Z,88.60
2018-04-02T01:24:01.054Z,88.60
2018-04-02T01:26:29.422Z,89.70
2018-04-02T01:28:57.070Z,88.60
2018-04-02T01:31:24.707Z,88.70
2018-04-02T01:33:52.371Z,88.80
2018-04-02T01:36:19.983Z,88.90
2018-04-02T01:38:47.626Z,89.00
2018-04-02T01:41:15.274Z,89.00
2018-04-02T01:43:42.906Z,89.00
2018-04-02T01:46:10.591Z,89.30
2018-04-02T01:48:38.238Z,89.00
2018-04-02T01:51:06.695Z,89.10
2018-04-02T01:53:34.323Z,89.10
2018-04-02T01:56:01.985Z,89.10
2018-04-02T01:58:29.627Z,89.20
2018-04-02T02:00:57.263Z,89.30
2018-04-02T02:03:24.919Z,89.30
2018-04-02T02:05:52.574Z,89.40
2018-04-02T02:08:21.004Z,89.40
2018-04-02T02:10:48.688Z,89.30
2018-04-02T02:13:16.318Z,89.30
2018-04-02T02:15:43.963Z,89.30
2018-04-02T02:18:11.566Z,89.30
2018-04-02T02:20:39.224Z,89.40
2018-04-02T02:23:06.903Z,89.30
2018-04-02T02:25:34.579Z,89.40
2018-04-02T02:28:02.989Z,89.40
2018-04-02T02:30:30.643Z,89.50
2018-04-02T02:32:58.313Z,89.40
2018-04-02T02:35:25.942Z,89.50
2018-04-02T02:37:54.355Z,89.60
2018-04-02T02:40:21.973Z,89.60
2018-04-02T02:42:49.651Z,89.70
2018-04-02T02:45:17.299Z,89.80
2018-04-02T02:47:45.776Z,89.80
2018-04-02T02:50:13.441Z,89.80
2018-04-02T02:52:41.070Z,89.80
2018-04-02T02:55:08.732Z,90.00
2018-04-02T02:57:36.391Z,90.10
2018-04-02T03:00:04.088Z,89.80
2018-04-02T03:02:31.720Z,89.90
2018-04-02T03:05:00.156Z,90.00
2018-04-02T03:07:27.820Z,89.90
2018-04-02T03:09:55.452Z,89.90
2018-04-02T03:12:23.098Z,90.00
2018-04-02T03:14:51.479Z,89.90
2018-04-02T03:17:19.149Z,89.90
2018-04-02T03:19:46.774Z,89.80
2018-04-02T03:22:14.580Z,89.80
2018-04-02T03:24:42.276Z,90.20
2018-04-02T03:27:10.675Z,89.70
2018-04-02T03:29:39.223Z,89.70
2018-04-02T03:32:07.053Z,89.70
2018-04-02T03:34:34.699Z,89.80
2018-04-02T03:37:02.375Z,89.90
2018-04-02T03:39:30.003Z,89.90
2018-04-02T03:41:57.646Z,90.00
2018-04-02T03:44:25.267Z,89.90
2018-04-02T03:46:52.915Z,90.00
2018-04-02T03:49:20.544Z,90.00
2018-04-02T03:51:48.207Z,90.00
2018-04-02T03:54:15.869Z,90.00
2018-04-02T03:56:43.511Z,90.00
2018-04-02T03:59:11.173Z,90.00
2018-04-02T04:01:38.800Z,90.00
2018-04-02T04:04:07.227Z,90.00
2018-04-02T04:06:34.852Z,90.00
2018-04-02T04:09:02.559Z,90.00
2018-04-02T04:11:30.224Z,90.00
2018-04-02T04:13:57.831Z,90.00
2018-04-02T04:16:25.497Z,90.00
2018-04-02T04:18:53.141Z,90.00
2018-04-02T04:38:54.010Z,90.20
2018-04-02T04:41:21.648Z,90.20
2018-04-02T04:43:49.279Z,90.20
2018-04-02T04:46:16.942Z,90.30
2018-04-02T04:48:45.392Z,90.70
2018-04-02T04:51:13.134Z,90.40
2018-04-02T04:53:41.539Z,90.50
2018-04-02T04:56:09.987Z,90.50
2018-04-02T04:58:37.639Z,90.50
2018-04-02T05:01:06.067Z,90.50
2018-04-02T05:03:33.697Z,90.50
2018-04-02T05:06:01.347Z,90.60
2018-04-02T05:08:28.975Z,90.60
2018-04-02T05:10:57.124Z,90.70
2018-04-02T05:13:24.815Z,90.70
2018-04-02T05:15:53.379Z,90.70
2018-04-02T05:18:20.995Z,90.70
2018-04-02T05:20:48.642Z,90.90
2018-04-02T05:23:16.271Z,90.90
2018-04-02T05:25:43.906Z,90.90
2018-04-02T05:28:11.539Z,90.90
2018-04-02T05:30:39.244Z,90.90
2018-04-02T05:33:06.898Z,91.00
2018-04-02T05:35:34.507Z,91.00
2018-04-02T05:38:02.188Z,91.10
2018-04-02T05:40:29.814Z,91.40
2018-04-02T05:42:57.445Z,91.10
2018-04-02T05:45:25.834Z,91.20
2018-04-02T05:47:54.321Z,91.20
2018-04-02T05:50:21.963Z,91.10
2018-04-02T05:52:49.619Z,91.10
2018-04-02T05:55:18.020Z,91.20
2018-04-02T05:57:46.487Z,90.90
2018-04-02T06:00:14.139Z,91.10
2018-04-02T06:02:41.802Z,91.10
2018-04-02T06:05:10.229Z,91.20
2018-04-02T06:07:37.936Z,91.10
2018-04-02T06:10:05.558Z,91.10
2018-04-02T06:12:33.598Z,91.10
2018-04-02T06:15:01.233Z,91.10
2018-04-02T06:17:28.883Z,91.00
2018-04-02T06:19:56.533Z,91.00
2018-04-02T06:22:24.997Z,91.00
2018-04-02T06:24:52.764Z,91.00
2018-04-02T06:27:20.418Z,90.90
2018-04-02T06:29:48.047Z,90.80
2018-04-02T06:32:15.647Z,91.10
2018-04-02T06:34:43.290Z,90.70
2018-04-02T06:37:11.748Z,90.40
2018-04-02T06:39:39.414Z,90.40
2018-04-02T06:42:07.054Z,90.30
2018-04-02T06:44:34.734Z,90.30
2018-04-02T06:47:02.358Z,90.50
2018-04-02T06:49:30.003Z,90.00
2018-04-02T06:51:57.861Z,89.90
2018-04-02T06:54:25.544Z,89.70
2018-04-02T06:56:53.936Z,89.40
2018-04-02T06:59:21.583Z,89.40
2018-04-02T07:19:06.511Z,87.10
2018-04-02T07:21:34.168Z,86.70
2018-04-02T07:24:01.847Z,86.30
2018-04-02T07:26:30.348Z,85.70
2018-04-02T07:28:58.901Z,85.60
2018-04-02T07:31:26.699Z,86.10
2018-04-02T07:33:55.214Z,84.70
2018-04-02T07:36:23.614Z,84.50
2018-04-02T07:38:52.007Z,84.20
2018-04-02T07:41:19.650Z,84.20
2018-04-02T07:43:47.307Z,83.70
2018-04-02T07:46:15.735Z,82.80
2018-04-02T07:48:43.610Z,82.80
2018-04-02T07:51:12.059Z,82.20
2018-04-02T07:53:39.686Z,82.10
2018-04-02T07:56:07.390Z,82.00
2018-04-02T07:58:35.791Z,81.30
2018-04-02T08:01:03.463Z,81.30
2018-04-02T08:03:31.103Z,80.40
2018-04-02T08:05:59.524Z,78.80
2018-04-02T08:08:27.952Z,78.40
2018-04-02T08:10:55.607Z,78.40
2018-04-02T08:13:23.266Z,78.30
2018-04-02T08:15:52.680Z,77.10
2018-04-02T08:18:20.316Z,77.20
2018-04-02T08:20:47.983Z,77.30
2018-04-02T08:29:17.815Z,75.20
2018-04-02T08:31:45.481Z,74.20
2018-04-02T08:34:13.748Z,73.60
2018-04-02T08:36:41.525Z,73.00
2018-04-02T08:39:09.931Z,71.80
2018-04-02T08:41:37.585Z,71.80
2018-04-02T08:44:05.445Z,70.80
2018-04-02T08:46:33.135Z,69.50
2018-04-02T08:49:00.853Z,68.90
2018-04-02T08:54:35.269Z,66.90
2018-04-02T08:57:04.877Z,66.50
2018-04-02T08:59:33.265Z,65.70
2018-04-02T09:02:01.298Z,64.60
2018-04-02T09:04:29.310Z,63.80
2018-04-02T09:24:34.363Z,57.30
2018-04-02T09:27:03.430Z,56.60
2018-04-02T09:29:52.217Z,55.90
2018-04-02T09:32:21.271Z,56.70
2018-04-02T09:34:49.566Z,56.70
2018-04-02T09:37:18.552Z,55.70
2018-04-02T09:39:46.676Z,55.70
2018-04-02T09:42:14.747Z,55.70
2018-04-02T09:44:43.790Z,55.40
2018-04-02T09:47:12.619Z,54.80
2018-04-02T09:49:41.613Z,54.50
2018-04-02T09:52:15.202Z,54.50
2018-04-02T09:54:43.274Z,54.30
2018-04-02T09:57:12.180Z,54.10
2018-04-02T09:59:41.416Z,54.10
2018-04-02T10:02:13.827Z,53.70
2018-04-02T10:04:43.607Z,53.30
2018-04-02T10:07:11.657Z,52.00
2018-04-02T10:09:39.819Z,51.70
2018-04-02T10:12:07.903Z,50.80
2018-04-02T10:14:36.061Z,49.80
2018-04-02T10:17:04.335Z,49.80
2018-04-02T10:19:32.039Z,48.70
2018-04-02T10:22:00.235Z,48.10
2018-04-02T10:36:21.489Z,47.50
2018-04-02T10:38:50.436Z,47.40
2018-04-02T10:41:18.601Z,47.40
2018-04-02T10:43:47.430Z,47.10
2018-04-02T10:46:15.609Z,46.50
2018-04-02T10:48:44.019Z,46.10
2018-04-02T10:51:12.466Z,46.50
2018-04-02T10:53:40.382Z,46.50
2018-04-02T10:56:08.431Z,46.40
2018-04-02T10:58:36.286Z,46.50
2018-04-02T11:01:05.574Z,46.30
2018-04-02T11:03:33.474Z,46.20
2018-04-02T11:06:01.446Z,46.20
2018-04-02T11:08:29.322Z,45.50
2018-04-02T11:10:57.212Z,44.70
2018-04-02T11:13:25.221Z,44.50
2018-04-02T11:15:53.125Z,44.30
2018-04-02T11:18:22.039Z,44.10
2018-04-02T11:20:50.011Z,43.80
2018-04-02T11:23:17.894Z,43.90
2018-04-02T11:25:45.891Z,44.40
2018-04-02T11:28:13.852Z,44.10
2018-04-02T11:30:41.735Z,43.60
2018-04-02T11:33:09.704Z,43.30
2018-04-02T11:35:37.394Z,43.00
2018-04-02T11:38:05.975Z,42.70
2018-04-02T11:40:51.975Z,42.60
2018-04-02T11:43:19.639Z,42.40
2018-04-02T11:45:47.298Z,42.30
2018-04-02T11:48:15.692Z,42.20
2018-04-02T11:50:43.360Z,42.10
2018-04-02T11:53:11.000Z,42.00
2018-04-02T11:55:38.663Z,41.90
2018-04-02T11:58:07.091Z,41.90
2018-04-02T12:00:34.787Z,41.90
2018-04-02T12:03:02.439Z,42.40
2018-04-02T12:05:30.072Z,42.00
2018-04-02T12:07:57.718Z,41.50
2018-04-02T12:10:26.143Z,41.50
2018-04-02T12:12:53.772Z,41.40
2018-04-02T12:15:21.450Z,41.10
2018-04-02T12:17:49.090Z,40.80
2018-04-02T12:20:17.543Z,40.70
2018-04-02T12:22:45.235Z,40.60
2018-04-02T12:25:12.867Z,40.50
2018-04-02T12:27:40.575Z,41.10
2018-04-02T12:30:08.210Z,40.30
2018-04-02T12:32:35.863Z,39.90
2018-04-02T12:35:03.507Z,39.60
2018-04-02T12:37:31.956Z,38.40
2018-04-02T12:39:59.602Z,38.90
2018-04-02T12:42:27.997Z,38.70
2018-04-02T12:44:55.706Z,38.70
2018-04-02T12:47:24.121Z,38.40
2018-04-02T12:49:51.795Z,38.30
2018-04-02T12:52:20.210Z,37.80
2018-04-02T12:54:47.891Z,37.80
2018-04-02T12:57:16.401Z,38.20
2018-04-02T12:59:44.056Z,38.30
2018-04-02T13:02:11.712Z,38.30
2018-04-02T13:04:39.390Z,37.50
2018-04-02T13:07:07.048Z,37.40
2018-04-02T13:09:35.451Z,37.80
2018-04-02T13:12:04.179Z,37.40
2018-04-02T13:14:32.123Z,37.40
2018-04-02T13:16:59.783Z,37.30
2018-04-02T13:19:27.684Z,37.40
2018-04-02T13:21:55.334Z,37.50
2018-04-02T13:24:22.999Z,37.60
2018-04-02T13:26:51.440Z,36.90
2018-04-02T13:29:19.100Z,36.90
2018-04-02T13:31:47.524Z,37.80
2018-04-02T13:34:15.159Z,37.80
2018-04-02T13:36:42.834Z,38.30
2018-04-02T13:39:12.295Z,37.70
2018-04-02T13:41:39.928Z,37.70
2018-04-02T13:44:07.612Z,36.90
2018-04-02T13:46:35.249Z,36.50
2018-04-02T13:49:02.908Z,36.00
2018-04-02T13:51:30.547Z,36.20
2018-04-02T13:53:58.986Z,36.00
2018-04-02T13:56:26.597Z,36.00
2018-04-02T13:58:54.257Z,35.80
2018-04-02T14:01:21.922Z,35.50
2018-04-02T14:03:50.322Z,35.00
2018-04-02T14:06:18.750Z,35.60
2018-04-02T14:08:46.387Z,35.00
2018-04-02T14:11:14.052Z,34.70
2018-04-02T14:13:42.566Z,34.50
2018-04-02T14:16:10.662Z,34.60
2018-04-02T14:27:32.771Z,34.10
2018-04-02T14:30:00.494Z,34.10
2018-04-02T14:32:28.136Z,33.70
2018-04-02T14:34:55.796Z,33.70
2018-04-02T14:37:24.221Z,34.00
2018-04-02T14:39:51.859Z,33.90
2018-04-02T14:42:19.551Z,33.70
2018-04-02T14:44:47.194Z,33.80
2018-04-02T14:47:14.854Z,33.70
2018-04-02T14:49:42.488Z,32.90
2018-04-02T14:52:10.119Z,32.90
2018-04-02T14:54:37.827Z,33.00
2018-04-02T14:57:05.451Z,33.30
2018-04-02T14:59:33.124Z,33.60
2018-04-02T15:02:00.779Z,33.50
2018-04-02T15:04:28.456Z,33.70
2018-04-02T15:06:56.101Z,33.90
2018-04-02T15:09:23.781Z,33.70
2018-04-02T15:11:51.472Z,33.80
2018-04-02T15:14:19.161Z,33.20
2018-04-02T15:16:49.341Z,33.40
2018-04-02T15:19:17.094Z,33.80
2018-04-02T15:21:44.827Z,34.10
2018-04-02T15:24:12.467Z,34.10
2018-04-02T15:26:40.895Z,34.80
2018-04-02T15:29:08.581Z,34.70
2018-04-02T15:31:36.662Z,35.20
2018-04-02T15:34:05.107Z,35.60
2018-04-02T15:36:32.729Z,35.60
2018-04-02T15:39:00.362Z,35.60
2018-04-02T15:41:27.975Z,35.70
2018-04-02T15:43:55.622Z,35.80
2018-04-02T15:46:24.046Z,36.20
2018-04-02T15:48:52.783Z,36.30
2018-04-02T15:51:21.247Z,36.50
2018-04-02T15:53:48.897Z,36.40
2018-04-02T15:56:16.764Z,36.80
2018-04-02T15:58:45.156Z,37.20
2018-04-02T16:01:13.586Z,37.20
2018-04-02T16:03:41.421Z,37.20
2018-04-02T16:06:09.138Z,37.30
2018-04-02T16:08:36.771Z,37.30
2018-04-02T16:11:05.162Z,37.80
2018-04-02T16:13:33.655Z,37.70
2018-04-02T16:16:01.361Z,37.70
2018-04-02T16:18:30.250Z,37.60
2018-04-02T16:20:57.995Z,37.50
2018-04-02T16:23:25.620Z,37.60
2018-04-02T16:25:54.634Z,37.50
2018-04-02T16:28:22.283Z,37.60
2018-04-02T16:30:49.928Z,37.70
2018-04-02T16:33:17.607Z,37.90
2018-04-02T16:35:45.250Z,38.10
2018-04-02T16:38:12.947Z,38.40
2018-04-02T16:40:40.595Z,38.60
2018-04-02T16:43:08.267Z,39.00
2018-04-02T16:45:35.887Z,39.20
2018-04-02T16:48:04.331Z,39.90
2018-04-02T16:50:32.003Z,39.90
2018-04-02T16:52:59.646Z,40.20
2018-04-02T16:55:27.315Z,40.30
2018-04-02T16:57:54.959Z,40.40
2018-04-02T17:00:22.647Z,40.70
2018-04-02T17:02:50.304Z,40.90
2018-04-02T17:05:18.714Z,41.40
2018-04-02T17:07:47.165Z,41.50
2018-04-02T17:10:14.803Z,41.50
2018-04-02T17:12:43.282Z,42.20
2018-04-02T17:15:10.952Z,42.20
2018-04-02T17:17:38.610Z,42.40
2018-04-02T17:20:06.385Z,42.60
2018-04-02T17:22:33.996Z,42.90
2018-04-02T17:25:01.665Z,43.00
2018-04-02T17:27:29.384Z,43.10
2018-04-02T17:29:57.056Z,43.00
2018-04-02T17:32:26.087Z,42.90
2018-04-02T17:34:53.727Z,42.80
2018-04-02T17:37:21.388Z,43.00
2018-04-02T17:39:49.046Z,43.00
2018-04-02T17:42:17.480Z,43.00
2018-04-02T17:44:45.158Z,43.00
2018-04-02T17:47:12.792Z,43.30
2018-04-02T17:49:40.482Z,43.40
2018-04-02T17:52:08.171Z,43.50
2018-04-02T17:54:35.811Z,43.60
2018-04-02T17:57:03.863Z,43.60
2018-04-02T17:59:32.256Z,44.10
2018-04-02T18:01:59.907Z,43.80
2018-04-02T18:04:28.302Z,44.10
2018-04-02T18:06:55.952Z,44.40
2018-04-02T18:09:24.388Z,45.30
2018-04-02T18:11:52.028Z,45.10
2018-04-02T18:14:20.692Z,45.40
2018-04-02T18:16:48.410Z,45.70
2018-04-02T18:19:16.032Z,45.90
2018-04-02T18:21:43.751Z,46.10
2018-04-02T18:24:11.382Z,46.20
2018-04-02T18:26:39.051Z,46.50
2018-04-02T18:29:06.691Z,46.60
2018-04-02T18:31:34.327Z,46.70
2018-04-02T18:34:01.984Z,47.00
2018-04-02T18:36:29.625Z,47.20
2018-04-02T18:38:58.076Z,47.50
2018-04-02T18:41:25.774Z,47.50
2018-04-02T18:43:53.479Z,47.60
2018-04-02T18:46:21.176Z,47.70
2018-04-02T18:48:49.127Z,47.70
2018-04-02T18:51:16.783Z,47.70
2018-04-02T18:53:49.183Z,47.90
2018-04-02T18:56:16.863Z,48.20
2018-04-02T18:58:45.827Z,48.20
2018-04-02T19:04:12.287Z,48.50
2018-04-02T19:06:40.711Z,48.50
2018-04-02T19:09:09.171Z,48.50
2018-04-02T19:11:36.823Z,48.50
2018-04-02T19:14:05.596Z,48.60
2018-04-02T19:16:33.314Z,48.60
2018-04-02T19:19:00.971Z,48.60
2018-04-02T19:21:36.758Z,48.60
2018-04-02T19:24:07.081Z,48.40
2018-04-02T19:26:34.946Z,48.20
2018-04-02T19:29:02.670Z,48.30
2018-04-02T19:31:30.324Z,48.50
2018-04-02T19:34:19.103Z,48.20
2018-04-02T19:36:46.782Z,48.30
2018-04-02T19:39:14.915Z,48.30
2018-04-02T19:41:43.358Z,48.30
2018-04-02T19:44:11.003Z,48.30
2018-04-02T19:46:38.731Z,48.50
2018-04-02T19:49:06.360Z,48.20
2018-04-02T19:51:34.028Z,48.30
2018-04-02T19:54:01.644Z,48.50
2018-04-02T19:56:29.317Z,48.40
2018-04-02T19:58:56.979Z,48.40
2018-04-02T20:01:24.585Z,48.40
2018-04-02T20:03:52.252Z,48.40
2018-04-02T20:06:19.871Z,48.40
2018-04-02T20:09:02.755Z,48.40
2018-04-02T20:11:31.154Z,48.40
2018-04-02T20:13:58.843Z,48.30
2018-04-02T20:16:26.474Z,48.40
2018-04-02T20:18:56.353Z,48.30
2018-04-02T20:21:24.223Z,48.30
2018-04-02T20:23:51.882Z,48.30
2018-04-02T20:26:19.520Z,48.30
2018-04-02T20:28:47.161Z,48.90
2018-04-02T20:31:14.867Z,48.20
2018-04-02T20:33:42.500Z,48.20
2018-04-02T20:36:10.150Z,48.20
2018-04-02T20:38:37.914Z,48.20
2018-04-02T20:41:05.561Z,48.20
2018-04-02T20:43:33.381Z,48.20
2018-04-02T20:46:00.975Z,48.60
2018-04-02T20:48:28.614Z,48.90
2018-04-02T20:50:56.226Z,49.70
2018-04-02T20:53:24.269Z,49.50
2018-04-02T20:55:51.914Z,49.80
2018-04-02T20:58:19.556Z,50.10
2018-04-02T21:00:47.527Z,50.10
2018-04-02T21:03:15.173Z,50.20
2018-04-02T21:05:42.825Z,50.20
2018-04-02T21:08:10.460Z,50.40
2018-04-02T21:10:38.120Z,50.40
2018-04-02T21:13:05.810Z,50.40
2018-04-02T21:15:59.076Z,50.40
2018-04-02T21:18:26.704Z,50.50
2018-04-02T21:20:54.363Z,50.60
2018-04-02T21:23:22.019Z,50.80
2018-04-02T21:25:50.430Z,50.80
2018-04-02T21:28:19.136Z,50.90
2018-04-02T21:30:46.831Z,50.80
2018-04-02T21:33:14.495Z,51.00
2018-04-02T21:35:42.130Z,50.80
2018-04-02T21:38:09.999Z,50.70
2018-04-02T21:40:37.691Z,50.70
2018-04-02T21:43:05.432Z,50.60
2018-04-02T21:45:33.146Z,50.60
2018-04-02T21:48:00.823Z,50.50
2018-04-02T21:50:28.467Z,50.40
2018-04-02T21:52:56.891Z,50.40
2018-04-02T21:55:24.548Z,50.40
2018-04-02T21:57:52.193Z,50.40
2018-04-02T22:00:19.866Z,50.40
2018-04-02T22:02:48.288Z,50.40
2018-04-02T22:05:15.894Z,50.40
2018-04-02T22:07:43.539Z,50.40
2018-04-02T22:10:11.356Z,50.50
2018-04-02T22:12:39.046Z,50.40
2018-04-02T22:15:06.698Z,50.50
2018-04-02T22:17:35.152Z,50.70
2018-04-02T22:20:03.640Z,51.10
2018-04-02T22:22:31.238Z,51.00
2018-04-02T22:24:58.895Z,52.10
2018-04-02T22:27:26.524Z,52.80
2018-04-02T22:29:54.208Z,53.10
2018-04-02T22:32:21.851Z,52.90
2018-04-02T22:34:49.544Z,53.30
2018-04-02T22:37:17.203Z,53.60
2018-04-02T22:39:44.874Z,53.80
2018-04-02T22:42:12.542Z,55.10
2018-04-02T22:44:40.166Z,55.40
2018-04-02T22:47:08.627Z,56.10
2018-04-02T22:49:36.286Z,55.60
2018-04-02T22:52:03.988Z,55.70
2018-04-02T22:54:31.635Z,55.70
2018-04-02T22:57:00.055Z,55.90
2018-04-02T22:59:28.474Z,56.00
2018-04-02T23:01:56.089Z,56.00
2018-04-02T23:04:23.744Z,56.10
2018-04-02T23:06:51.744Z,56.00
2018-04-02T23:09:19.439Z,55.90
2018-04-02T23:11:47.127Z,55.90
2018-04-02T23:14:15.466Z,55.90
2018-04-02T23:16:43.060Z,55.90
2018-04-02T23:19:10.634Z,55.80
2018-04-02T23:21:38.238Z,55.70
2018-04-02T23:24:05.805Z,55.80
2018-04-02T23:26:33.406Z,55.90
2018-04-02T23:29:00.970Z,56.00
2018-04-02T23:31:28.557Z,56.20
2018-04-02T23:33:56.129Z,56.20
2018-04-02T23:36:23.733Z,56.20
2018-04-02T23:38:51.306Z,56.30
2018-04-02T23:41:18.927Z,56.40
2018-04-02T23:43:46.501Z,56.50
2018-04-02T23:46:14.111Z,56.80
2018-04-02T23:48:41.678Z,57.10
2018-04-02T23:51:09.278Z,57.20
2018-04-02T23:53:36.881Z,57.90
2018-04-02T23:56:04.618Z,58.50
2018-04-02T23:58:32.219Z,59.20
